sensor_id;sensor_type;location;lat;lon;timestamp;P1;durP1;ratioP1;P2;durP2;ratioP2
24259;SDS011;12384;48.112;18.418;2022-09-02T00:00:42;9.33;;;8.83;;
24259;SDS011;12384;48.112;18.418;2022-09-02T00:03:11;8.80;;;8.30;;
24259;SDS011;12384;48.112;18.418;2022-09-02T00:05:41;9.07;;;8.47;;
24259;SDS011;12384;48.112;18.418;2022-09-02T00:08:09;9.37;;;8.87;;
24259;SDS011;12384;48.112;18.418;2022-09-02T00:10:41;9.23;;;8.73;;
24259;SDS011;12384;48.112;18.418;2022-09-02T00:13:11;9.70;;;9.10;;
24259;SDS011;12384;48.112;18.418;2022-09-02T00:15:43;9.43;;;8.73;;
24259;SDS011;12384;48.112;18.418;2022-09-02T00:18:12;9.53;;;9.03;;
24259;SDS011;12384;48.112;18.418;2022-09-02T00:20:45;9.20;;;8.70;;
24259;SDS011;12384;48.112;18.418;2022-09-02T00:23:15;9.50;;;9.00;;
24259;SDS011;12384;48.112;18.418;2022-09-02T00:25:43;9.57;;;9.07;;
24259;SDS011;12384;48.112;18.418;2022-09-02T00:28:12;9.53;;;8.93;;
24259;SDS011;12384;48.112;18.418;2022-09-02T00:30:47;9.43;;;8.83;;
24259;SDS011;12384;48.112;18.418;2022-09-02T00:33:17;10.10;;;9.50;;
24259;SDS011;12384;48.112;18.418;2022-09-02T00:35:45;9.70;;;9.20;;
24259;SDS011;12384;48.112;18.418;2022-09-02T00:38:14;9.60;;;9.00;;
24259;SDS011;12384;48.112;18.418;2022-09-02T00:40:43;9.80;;;9.20;;
24259;SDS011;12384;48.112;18.418;2022-09-02T00:43:21;9.20;;;8.70;;
24259;SDS011;12384;48.112;18.418;2022-09-02T00:45:51;10.27;;;9.57;;
24259;SDS011;12384;48.112;18.418;2022-09-02T00:48:21;10.03;;;9.43;;
24259;SDS011;12384;48.112;18.418;2022-09-02T00:50:49;9.20;;;8.70;;
24259;SDS011;12384;48.112;18.418;2022-09-02T00:53:19;9.83;;;9.23;;
24259;SDS011;12384;48.112;18.418;2022-09-02T00:55:48;10.20;;;9.60;;
24259;SDS011;12384;48.112;18.418;2022-09-02T00:58:18;9.97;;;9.37;;
24259;SDS011;12384;48.112;18.418;2022-09-02T01:00:48;9.50;;;9.00;;
24259;SDS011;12384;48.112;18.418;2022-09-02T01:03:24;9.70;;;9.20;;
24259;SDS011;12384;48.112;18.418;2022-09-02T01:05:55;10.20;;;9.60;;
24259;SDS011;12384;48.112;18.418;2022-09-02T01:08:26;9.83;;;9.30;;
24259;SDS011;12384;48.112;18.418;2022-09-02T01:11:00;10.03;;;9.43;;
24259;SDS011;12384;48.112;18.418;2022-09-02T01:13:34;10.27;;;9.57;;
24259;SDS011;12384;48.112;18.418;2022-09-02T01:16:09;10.50;;;9.80;;
24259;SDS011;12384;48.112;18.418;2022-09-02T01:18:41;9.60;;;9.10;;
24259;SDS011;12384;48.112;18.418;2022-09-02T01:21:15;9.67;;;9.17;;
24259;SDS011;12384;48.112;18.418;2022-09-02T01:23:46;10.57;;;9.90;;
24259;SDS011;12384;48.112;18.418;2022-09-02T01:26:16;9.57;;;9.07;;
24259;SDS011;12384;48.112;18.418;2022-09-02T01:28:45;9.90;;;9.20;;
24259;SDS011;12384;48.112;18.418;2022-09-02T01:31:13;10.13;;;9.33;;
24259;SDS011;12384;48.112;18.418;2022-09-02T01:33:41;9.80;;;9.30;;
24259;SDS011;12384;48.112;18.418;2022-09-02T01:36:11;9.80;;;9.20;;
24259;SDS011;12384;48.112;18.418;2022-09-02T01:38:40;9.60;;;9.10;;
24259;SDS011;12384;48.112;18.418;2022-09-02T01:41:10;9.40;;;8.87;;
24259;SDS011;12384;48.112;18.418;2022-09-02T01:43:38;9.50;;;8.93;;
24259;SDS011;12384;48.112;18.418;2022-09-02T01:46:07;9.67;;;9.07;;
24259;SDS011;12384;48.112;18.418;2022-09-02T01:48:35;9.60;;;9.10;;
24259;SDS011;12384;48.112;18.418;2022-09-02T01:51:04;9.23;;;8.80;;
24259;SDS011;12384;48.112;18.418;2022-09-02T01:53:33;9.53;;;9.03;;
24259;SDS011;12384;48.112;18.418;2022-09-02T01:56:04;9.80;;;9.30;;
24259;SDS011;12384;48.112;18.418;2022-09-02T01:58:34;9.73;;;9.23;;
24259;SDS011;12384;48.112;18.418;2022-09-02T02:01:03;9.67;;;9.07;;
24259;SDS011;12384;48.112;18.418;2022-09-02T02:03:33;9.77;;;9.27;;
24259;SDS011;12384;48.112;18.418;2022-09-02T02:06:06;10.00;;;9.50;;
24259;SDS011;12384;48.112;18.418;2022-09-02T02:08:37;9.47;;;8.97;;
24259;SDS011;12384;48.112;18.418;2022-09-02T02:11:08;9.83;;;9.20;;
24259;SDS011;12384;48.112;18.418;2022-09-02T02:13:38;9.30;;;8.80;;
24259;SDS011;12384;48.112;18.418;2022-09-02T02:16:06;8.93;;;8.43;;
24259;SDS011;12384;48.112;18.418;2022-09-02T02:18:35;9.20;;;8.70;;
24259;SDS011;12384;48.112;18.418;2022-09-02T02:21:03;9.60;;;9.10;;
24259;SDS011;12384;48.112;18.418;2022-09-02T02:23:31;9.40;;;8.90;;
24259;SDS011;12384;48.112;18.418;2022-09-02T02:26:00;9.57;;;9.00;;
24259;SDS011;12384;48.112;18.418;2022-09-02T02:28:28;9.17;;;8.67;;
24259;SDS011;12384;48.112;18.418;2022-09-02T02:30:58;8.97;;;8.57;;
24259;SDS011;12384;48.112;18.418;2022-09-02T02:33:28;9.43;;;8.93;;
24259;SDS011;12384;48.112;18.418;2022-09-02T02:36:03;9.80;;;9.30;;
24259;SDS011;12384;48.112;18.418;2022-09-02T02:38:34;9.77;;;9.27;;
24259;SDS011;12384;48.112;18.418;2022-09-02T02:41:04;9.50;;;9.00;;
24259;SDS011;12384;48.112;18.418;2022-09-02T02:43:33;9.70;;;9.00;;
24259;SDS011;12384;48.112;18.418;2022-09-02T02:46:04;8.77;;;8.37;;
24259;SDS011;12384;48.112;18.418;2022-09-02T02:48:35;9.00;;;8.50;;
24259;SDS011;12384;48.112;18.418;2022-09-02T02:51:05;9.00;;;8.60;;
24259;SDS011;12384;48.112;18.418;2022-09-02T02:53:34;8.80;;;8.40;;
24259;SDS011;12384;48.112;18.418;2022-09-02T02:56:03;9.47;;;8.87;;
24259;SDS011;12384;48.112;18.418;2022-09-02T02:58:31;9.10;;;8.60;;
24259;SDS011;12384;48.112;18.418;2022-09-02T03:01:00;9.10;;;8.60;;
24259;SDS011;12384;48.112;18.418;2022-09-02T03:03:30;9.07;;;8.67;;
24259;SDS011;12384;48.112;18.418;2022-09-02T03:05:59;8.90;;;8.50;;
24259;SDS011;12384;48.112;18.418;2022-09-02T03:08:28;9.00;;;8.60;;
24259;SDS011;12384;48.112;18.418;2022-09-02T03:10:59;9.20;;;8.73;;
24259;SDS011;12384;48.112;18.418;2022-09-02T03:13:30;9.07;;;8.57;;
24259;SDS011;12384;48.112;18.418;2022-09-02T03:16:18;8.80;;;8.40;;
24259;SDS011;12384;48.112;18.418;2022-09-02T03:18:48;9.03;;;8.57;;
24259;SDS011;12384;48.112;18.418;2022-09-02T03:21:17;8.30;;;7.90;;
24259;SDS011;12384;48.112;18.418;2022-09-02T03:23:46;8.40;;;7.90;;
24259;SDS011;12384;48.112;18.418;2022-09-02T03:26:16;8.77;;;8.37;;
24259;SDS011;12384;48.112;18.418;2022-09-02T03:28:47;8.40;;;8.00;;
24259;SDS011;12384;48.112;18.418;2022-09-02T03:31:17;8.87;;;8.40;;
24259;SDS011;12384;48.112;18.418;2022-09-02T03:33:49;8.83;;;8.40;;
24259;SDS011;12384;48.112;18.418;2022-09-02T03:36:20;8.80;;;8.40;;
24259;SDS011;12384;48.112;18.418;2022-09-02T03:38:50;8.63;;;8.23;;
24259;SDS011;12384;48.112;18.418;2022-09-02T03:41:18;9.87;;;9.27;;
24259;SDS011;12384;48.112;18.418;2022-09-02T03:43:47;9.50;;;9.00;;
24259;SDS011;12384;48.112;18.418;2022-09-02T03:46:17;9.37;;;8.87;;
24259;SDS011;12384;48.112;18.418;2022-09-02T03:48:46;9.80;;;9.30;;
24259;SDS011;12384;48.112;18.418;2022-09-02T03:51:19;10.43;;;9.93;;
24259;SDS011;12384;48.112;18.418;2022-09-02T03:53:48;9.20;;;8.70;;
24259;SDS011;12384;48.112;18.418;2022-09-02T03:56:17;9.57;;;9.07;;
24259;SDS011;12384;48.112;18.418;2022-09-02T03:58:47;9.10;;;8.70;;
24259;SDS011;12384;48.112;18.418;2022-09-02T04:01:37;9.27;;;8.77;;
24259;SDS011;12384;48.112;18.418;2022-09-02T04:04:06;10.77;;;10.17;;
24259;SDS011;12384;48.112;18.418;2022-09-02T04:06:37;10.03;;;9.50;;
24259;SDS011;12384;48.112;18.418;2022-09-02T04:09:06;10.70;;;10.10;;
24259;SDS011;12384;48.112;18.418;2022-09-02T04:11:37;10.33;;;9.83;;
24259;SDS011;12384;48.112;18.418;2022-09-02T04:14:09;10.37;;;9.87;;
24259;SDS011;12384;48.112;18.418;2022-09-02T04:16:39;10.20;;;9.70;;
24259;SDS011;12384;48.112;18.418;2022-09-02T04:19:07;10.70;;;10.20;;
24259;SDS011;12384;48.112;18.418;2022-09-02T04:21:39;10.40;;;9.80;;
24259;SDS011;12384;48.112;18.418;2022-09-02T04:24:10;9.67;;;9.17;;
24259;SDS011;12384;48.112;18.418;2022-09-02T04:26:43;10.50;;;10.00;;
24259;SDS011;12384;48.112;18.418;2022-09-02T04:29:15;9.83;;;9.33;;
24259;SDS011;12384;48.112;18.418;2022-09-02T04:31:46;9.90;;;9.40;;
24259;SDS011;12384;48.112;18.418;2022-09-02T04:34:15;9.80;;;9.30;;
24259;SDS011;12384;48.112;18.418;2022-09-02T04:36:48;10.40;;;9.90;;
24259;SDS011;12384;48.112;18.418;2022-09-02T04:39:17;10.80;;;10.20;;
24259;SDS011;12384;48.112;18.418;2022-09-02T04:41:45;10.73;;;10.23;;
24259;SDS011;12384;48.112;18.418;2022-09-02T04:44:14;9.77;;;9.27;;
24259;SDS011;12384;48.112;18.418;2022-09-02T04:46:45;9.90;;;9.40;;
24259;SDS011;12384;48.112;18.418;2022-09-02T04:49:18;9.90;;;9.40;;
24259;SDS011;12384;48.112;18.418;2022-09-02T04:51:52;8.83;;;8.43;;
24259;SDS011;12384;48.112;18.418;2022-09-02T04:54:22;10.03;;;9.47;;
24259;SDS011;12384;48.112;18.418;2022-09-02T04:56:52;10.10;;;9.60;;
24259;SDS011;12384;48.112;18.418;2022-09-02T04:59:22;11.00;;;10.47;;
24259;SDS011;12384;48.112;18.418;2022-09-02T05:02:12;10.43;;;9.93;;
24259;SDS011;12384;48.112;18.418;2022-09-02T05:04:41;10.23;;;9.73;;
24259;SDS011;12384;48.112;18.418;2022-09-02T05:07:18;10.23;;;9.73;;
24259;SDS011;12384;48.112;18.418;2022-09-02T05:09:48;10.20;;;9.70;;
24259;SDS011;12384;48.112;18.418;2022-09-02T05:12:17;9.80;;;9.30;;
24259;SDS011;12384;48.112;18.418;2022-09-02T05:14:54;10.20;;;9.60;;
24259;SDS011;12384;48.112;18.418;2022-09-02T05:17:28;10.00;;;9.50;;
24259;SDS011;12384;48.112;18.418;2022-09-02T05:19:58;10.33;;;9.83;;
24259;SDS011;12384;48.112;18.418;2022-09-02T05:22:29;10.43;;;9.83;;
24259;SDS011;12384;48.112;18.418;2022-09-02T05:24:59;9.77;;;9.27;;
24259;SDS011;12384;48.112;18.418;2022-09-02T05:27:28;10.13;;;9.63;;
24259;SDS011;12384;48.112;18.418;2022-09-02T05:29:58;10.10;;;9.60;;
24259;SDS011;12384;48.112;18.418;2022-09-02T05:32:29;9.67;;;9.17;;
24259;SDS011;12384;48.112;18.418;2022-09-02T05:35:04;9.50;;;9.00;;
24259;SDS011;12384;48.112;18.418;2022-09-02T05:37:35;12.80;;;12.10;;
24259;SDS011;12384;48.112;18.418;2022-09-02T05:40:05;12.57;;;11.93;;
24259;SDS011;12384;48.112;18.418;2022-09-02T05:42:40;11.30;;;10.70;;
24259;SDS011;12384;48.112;18.418;2022-09-02T05:45:10;12.63;;;11.97;;
24259;SDS011;12384;48.112;18.418;2022-09-02T05:47:42;11.30;;;10.70;;
24259;SDS011;12384;48.112;18.418;2022-09-02T05:50:11;11.30;;;10.73;;
24259;SDS011;12384;48.112;18.418;2022-09-02T05:52:44;11.87;;;11.23;;
24259;SDS011;12384;48.112;18.418;2022-09-02T05:55:17;10.53;;;10.03;;
24259;SDS011;12384;48.112;18.418;2022-09-02T05:57:47;11.17;;;10.47;;
24259;SDS011;12384;48.112;18.418;2022-09-02T06:00:16;11.30;;;10.70;;
24259;SDS011;12384;48.112;18.418;2022-09-02T06:02:53;11.20;;;10.60;;
24259;SDS011;12384;48.112;18.418;2022-09-02T06:05:26;11.93;;;11.33;;
24259;SDS011;12384;48.112;18.418;2022-09-02T06:08:05;10.43;;;9.93;;
24259;SDS011;12384;48.112;18.418;2022-09-02T06:10:39;9.93;;;9.43;;
24259;SDS011;12384;48.112;18.418;2022-09-02T06:13:11;10.90;;;10.30;;
24259;SDS011;12384;48.112;18.418;2022-09-02T06:15:41;9.83;;;9.33;;
24259;SDS011;12384;48.112;18.418;2022-09-02T06:18:12;10.43;;;9.93;;
24259;SDS011;12384;48.112;18.418;2022-09-02T06:20:44;9.43;;;8.93;;
24259;SDS011;12384;48.112;18.418;2022-09-02T06:23:16;9.70;;;9.20;;
24259;SDS011;12384;48.112;18.418;2022-09-02T06:25:46;9.33;;;8.93;;
24259;SDS011;12384;48.112;18.418;2022-09-02T06:28:16;10.30;;;9.80;;
24259;SDS011;12384;48.112;18.418;2022-09-02T06:30:46;9.97;;;9.47;;
24259;SDS011;12384;48.112;18.418;2022-09-02T06:33:20;11.20;;;10.60;;
24259;SDS011;12384;48.112;18.418;2022-09-02T06:35:49;8.97;;;8.57;;
24259;SDS011;12384;48.112;18.418;2022-09-02T06:38:20;10.30;;;9.80;;
24259;SDS011;12384;48.112;18.418;2022-09-02T06:40:50;10.40;;;9.80;;
24259;SDS011;12384;48.112;18.418;2022-09-02T06:43:26;9.50;;;9.00;;
24259;SDS011;12384;48.112;18.418;2022-09-02T06:46:18;11.40;;;10.80;;
24259;SDS011;12384;48.112;18.418;2022-09-02T06:48:52;9.10;;;8.60;;
24259;SDS011;12384;48.112;18.418;2022-09-02T06:51:23;9.03;;;8.63;;
24259;SDS011;12384;48.112;18.418;2022-09-02T06:53:55;10.80;;;10.30;;
24259;SDS011;12384;48.112;18.418;2022-09-02T06:56:29;9.93;;;9.43;;
24259;SDS011;12384;48.112;18.418;2022-09-02T06:58:58;9.50;;;9.00;;
24259;SDS011;12384;48.112;18.418;2022-09-02T07:01:47;10.13;;;9.63;;
24259;SDS011;12384;48.112;18.418;2022-09-02T07:04:18;8.83;;;8.37;;
24259;SDS011;12384;48.112;18.418;2022-09-02T07:07:06;10.17;;;9.67;;
24259;SDS011;12384;48.112;18.418;2022-09-02T07:09:44;9.80;;;9.20;;
24259;SDS011;12384;48.112;18.418;2022-09-02T07:12:15;9.37;;;8.87;;
24259;SDS011;12384;48.112;18.418;2022-09-02T07:14:50;8.70;;;8.20;;
24259;SDS011;12384;48.112;18.418;2022-09-02T07:17:27;8.83;;;8.43;;
24259;SDS011;12384;48.112;18.418;2022-09-02T07:20:00;8.80;;;8.40;;
24259;SDS011;12384;48.112;18.418;2022-09-02T07:22:35;8.80;;;8.40;;
24259;SDS011;12384;48.112;18.418;2022-09-02T07:25:08;8.50;;;8.10;;
24259;SDS011;12384;48.112;18.418;2022-09-02T07:27:38;8.90;;;8.50;;
24259;SDS011;12384;48.112;18.418;2022-09-02T07:30:07;8.97;;;8.30;;
24259;SDS011;12384;48.112;18.418;2022-09-02T07:32:39;8.60;;;8.10;;
24259;SDS011;12384;48.112;18.418;2022-09-02T07:35:08;9.07;;;8.37;;
24259;SDS011;12384;48.112;18.418;2022-09-02T07:37:37;8.67;;;8.27;;
24259;SDS011;12384;48.112;18.418;2022-09-02T07:40:08;8.27;;;7.77;;
24259;SDS011;12384;48.112;18.418;2022-09-02T07:42:39;8.05;;;7.65;;
24259;SDS011;12384;48.112;18.418;2022-09-02T07:45:08;8.18;;;7.78;;
24259;SDS011;12384;48.112;18.418;2022-09-02T07:47:39;8.07;;;7.68;;
24259;SDS011;12384;48.112;18.418;2022-09-02T07:50:09;8.48;;;7.97;;
24259;SDS011;12384;48.112;18.418;2022-09-02T07:52:46;7.32;;;6.93;;
24259;SDS011;12384;48.112;18.418;2022-09-02T07:55:17;7.35;;;6.95;;
24259;SDS011;12384;48.112;18.418;2022-09-02T07:57:46;7.70;;;7.30;;
24259;SDS011;12384;48.112;18.418;2022-09-02T08:00:19;8.23;;;7.82;;
24259;SDS011;12384;48.112;18.418;2022-09-02T08:02:50;7.90;;;7.50;;
24259;SDS011;12384;48.112;18.418;2022-09-02T08:05:25;8.02;;;7.63;;
24259;SDS011;12384;48.112;18.418;2022-09-02T08:07:54;8.00;;;7.60;;
24259;SDS011;12384;48.112;18.418;2022-09-02T08:10:24;8.48;;;8.05;;
24259;SDS011;12384;48.112;18.418;2022-09-02T08:12:55;8.25;;;7.85;;
24259;SDS011;12384;48.112;18.418;2022-09-02T08:15:26;7.60;;;7.20;;
24259;SDS011;12384;48.112;18.418;2022-09-02T08:17:56;7.97;;;7.47;;
24259;SDS011;12384;48.112;18.418;2022-09-02T08:20:25;7.30;;;6.90;;
24259;SDS011;12384;48.112;18.418;2022-09-02T08:22:55;8.05;;;7.65;;
24259;SDS011;12384;48.112;18.418;2022-09-02T08:25:38;7.78;;;7.38;;
24259;SDS011;12384;48.112;18.418;2022-09-02T08:28:08;7.88;;;7.40;;
24259;SDS011;12384;48.112;18.418;2022-09-02T08:30:36;7.00;;;6.60;;
24259;SDS011;12384;48.112;18.418;2022-09-02T08:33:05;7.80;;;7.30;;
24259;SDS011;12384;48.112;18.418;2022-09-02T08:35:33;7.43;;;7.03;;
24259;SDS011;12384;48.112;18.418;2022-09-02T08:38:02;7.10;;;6.80;;
24259;SDS011;12384;48.112;18.418;2022-09-02T08:40:33;7.63;;;7.25;;
24259;SDS011;12384;48.112;18.418;2022-09-02T08:43:07;7.47;;;7.07;;
24259;SDS011;12384;48.112;18.418;2022-09-02T08:45:47;7.97;;;7.47;;
24259;SDS011;12384;48.112;18.418;2022-09-02T08:48:21;7.88;;;7.47;;
24259;SDS011;12384;48.112;18.418;2022-09-02T08:50:57;7.57;;;7.07;;
24259;SDS011;12384;48.112;18.418;2022-09-02T08:53:30;7.40;;;7.10;;
24259;SDS011;12384;48.112;18.418;2022-09-02T08:56:03;7.68;;;7.28;;
24259;SDS011;12384;48.112;18.418;2022-09-02T08:58:37;7.50;;;7.10;;
24259;SDS011;12384;48.112;18.418;2022-09-02T09:01:09;7.30;;;6.90;;
24259;SDS011;12384;48.112;18.418;2022-09-02T09:03:50;7.50;;;7.10;;
24259;SDS011;12384;48.112;18.418;2022-09-02T09:06:33;8.13;;;7.63;;
24259;SDS011;12384;48.112;18.418;2022-09-02T09:09:13;8.32;;;7.93;;
24259;SDS011;12384;48.112;18.418;2022-09-02T09:11:50;7.90;;;7.50;;
24259;SDS011;12384;48.112;18.418;2022-09-02T09:14:27;7.72;;;7.32;;
24259;SDS011;12384;48.112;18.418;2022-09-02T09:17:04;8.00;;;7.45;;
24259;SDS011;12384;48.112;18.418;2022-09-02T09:19:47;7.72;;;7.32;;
24259;SDS011;12384;48.112;18.418;2022-09-02T09:22:18;7.82;;;7.43;;
24259;SDS011;12384;48.112;18.418;2022-09-02T09:24:49;7.60;;;7.20;;
24259;SDS011;12384;48.112;18.418;2022-09-02T09:27:18;7.70;;;7.30;;
24259;SDS011;12384;48.112;18.418;2022-09-02T09:29:49;7.13;;;6.72;;
24259;SDS011;12384;48.112;18.418;2022-09-02T09:32:21;7.20;;;6.85;;
24259;SDS011;12384;48.112;18.418;2022-09-02T09:34:55;7.30;;;6.90;;
24259;SDS011;12384;48.112;18.418;2022-09-02T09:37:28;7.43;;;6.95;;
24259;SDS011;12384;48.112;18.418;2022-09-02T09:42:52;7.07;;;6.75;;
24259;SDS011;12384;48.112;18.418;2022-09-02T09:45:29;6.88;;;6.50;;
24259;SDS011;12384;48.112;18.418;2022-09-02T09:48:11;7.38;;;7.07;;
24259;SDS011;12384;48.112;18.418;2022-09-02T09:50:49;7.25;;;6.90;;
24259;SDS011;12384;48.112;18.418;2022-09-02T09:53:38;7.75;;;7.35;;
24259;SDS011;12384;48.112;18.418;2022-09-02T09:56:19;7.65;;;7.25;;
24259;SDS011;12384;48.112;18.418;2022-09-02T09:59:04;7.55;;;7.15;;
24259;SDS011;12384;48.112;18.418;2022-09-02T10:01:37;7.85;;;7.45;;
24259;SDS011;12384;48.112;18.418;2022-09-02T10:04:06;7.38;;;7.07;;
24259;SDS011;12384;48.112;18.418;2022-09-02T10:06:57;8.00;;;7.60;;
24259;SDS011;12384;48.112;18.418;2022-09-02T10:09:30;7.63;;;7.32;;
24259;SDS011;12384;48.112;18.418;2022-09-02T10:12:01;7.80;;;7.40;;
24259;SDS011;12384;48.112;18.418;2022-09-02T10:14:32;7.43;;;7.00;;
24259;SDS011;12384;48.112;18.418;2022-09-02T10:17:11;7.90;;;7.50;;
24259;SDS011;12384;48.112;18.418;2022-09-02T10:19:49;7.72;;;7.22;;
24259;SDS011;12384;48.112;18.418;2022-09-02T10:25:28;7.53;;;7.20;;
24259;SDS011;12384;48.112;18.418;2022-09-02T10:28:06;7.00;;;6.70;;
24259;SDS011;12384;48.112;18.418;2022-09-02T10:30:46;7.38;;;7.07;;
24259;SDS011;12384;48.112;18.418;2022-09-02T10:33:26;7.50;;;7.20;;
24259;SDS011;12384;48.112;18.418;2022-09-02T10:36:04;7.10;;;6.80;;
24259;SDS011;12384;48.112;18.418;2022-09-02T10:38:45;7.18;;;6.88;;
24259;SDS011;12384;48.112;18.418;2022-09-02T10:41:23;7.50;;;7.10;;
24259;SDS011;12384;48.112;18.418;2022-09-02T10:44:07;7.10;;;6.80;;
24259;SDS011;12384;48.112;18.418;2022-09-02T10:46:57;7.80;;;7.40;;
24259;SDS011;12384;48.112;18.418;2022-09-02T10:49:36;7.63;;;7.22;;
24259;SDS011;12384;48.112;18.418;2022-09-02T10:52:32;7.70;;;7.30;;
24259;SDS011;12384;48.112;18.418;2022-09-02T10:55:13;7.20;;;6.90;;
24259;SDS011;12384;48.112;18.418;2022-09-02T10:57:48;7.70;;;7.30;;
24259;SDS011;12384;48.112;18.418;2022-09-02T11:00:21;6.93;;;6.63;;
24259;SDS011;12384;48.112;18.418;2022-09-02T11:02:50;7.07;;;6.78;;
24259;SDS011;12384;48.112;18.418;2022-09-02T11:05:23;7.60;;;7.20;;
24259;SDS011;12384;48.112;18.418;2022-09-02T11:07:56;7.70;;;7.25;;
24259;SDS011;12384;48.112;18.418;2022-09-02T11:10:31;7.75;;;7.35;;
24259;SDS011;12384;48.112;18.418;2022-09-02T11:13:05;7.70;;;7.30;;
24259;SDS011;12384;48.112;18.418;2022-09-02T11:15:42;7.80;;;7.40;;
24259;SDS011;12384;48.112;18.418;2022-09-02T11:18:16;8.07;;;7.57;;
24259;SDS011;12384;48.112;18.418;2022-09-02T11:20:55;8.00;;;7.60;;
24259;SDS011;12384;48.112;18.418;2022-09-02T11:23:33;7.78;;;7.38;;
24259;SDS011;12384;48.112;18.418;2022-09-02T11:26:09;8.00;;;7.60;;
24259;SDS011;12384;48.112;18.418;2022-09-02T11:28:45;7.53;;;7.13;;
24259;SDS011;12384;48.112;18.418;2022-09-02T11:31:21;7.78;;;7.38;;
24259;SDS011;12384;48.112;18.418;2022-09-02T11:33:59;7.45;;;7.15;;
24259;SDS011;12384;48.112;18.418;2022-09-02T11:36:37;7.65;;;7.25;;
24259;SDS011;12384;48.112;18.418;2022-09-02T11:39:07;7.70;;;7.30;;
24259;SDS011;12384;48.112;18.418;2022-09-02T11:42:05;7.93;;;7.53;;
24259;SDS011;12384;48.112;18.418;2022-09-02T11:44:54;7.80;;;7.40;;
24259;SDS011;12384;48.112;18.418;2022-09-02T11:50:40;7.65;;;7.25;;
24259;SDS011;12384;48.112;18.418;2022-09-02T11:53:27;7.30;;;6.90;;
24259;SDS011;12384;48.112;18.418;2022-09-02T11:55:58;7.15;;;6.85;;
24259;SDS011;12384;48.112;18.418;2022-09-02T11:58:34;7.80;;;7.30;;
24259;SDS011;12384;48.112;18.418;2022-09-02T12:04:01;7.95;;;7.43;;
24259;SDS011;12384;48.112;18.418;2022-09-02T12:09:58;7.70;;;7.10;;
24259;SDS011;12384;48.112;18.418;2022-09-02T12:15:35;8.00;;;7.60;;
24259;SDS011;12384;48.112;18.418;2022-09-02T12:18:09;7.85;;;7.45;;
24259;SDS011;12384;48.112;18.418;2022-09-02T12:27:17;7.75;;;7.35;;
24259;SDS011;12384;48.112;18.418;2022-09-02T12:29:59;7.95;;;7.55;;
24259;SDS011;12384;48.112;18.418;2022-09-02T12:35:47;8.35;;;7.95;;
24259;SDS011;12384;48.112;18.418;2022-09-02T12:41:07;8.30;;;7.90;;
24259;SDS011;12384;48.112;18.418;2022-09-02T12:46:58;8.45;;;8.05;;
24259;SDS011;12384;48.112;18.418;2022-09-02T12:49:43;8.25;;;7.85;;
24259;SDS011;12384;48.112;18.418;2022-09-02T12:55:09;8.00;;;7.60;;
24259;SDS011;12384;48.112;18.418;2022-09-02T12:57:43;8.02;;;7.63;;
24259;SDS011;12384;48.112;18.418;2022-09-02T13:00:18;7.85;;;7.45;;
24259;SDS011;12384;48.112;18.418;2022-09-02T13:02:57;8.20;;;7.80;;
24259;SDS011;12384;48.112;18.418;2022-09-02T13:05:37;8.18;;;7.78;;
24259;SDS011;12384;48.112;18.418;2022-09-02T13:08:41;8.60;;;8.20;;
24259;SDS011;12384;48.112;18.418;2022-09-02T13:12:01;8.10;;;7.70;;
24259;SDS011;12384;48.112;18.418;2022-09-02T13:15:04;7.90;;;7.50;;
24259;SDS011;12384;48.112;18.418;2022-09-02T13:18:04;8.10;;;7.70;;
24259;SDS011;12384;48.112;18.418;2022-09-02T13:21:08;8.38;;;7.97;;
24259;SDS011;12384;48.112;18.418;2022-09-02T13:27:36;7.80;;;7.40;;
24259;SDS011;12384;48.112;18.418;2022-09-02T13:30:20;8.32;;;7.82;;
24259;SDS011;12384;48.112;18.418;2022-09-02T13:32:58;8.18;;;7.78;;
24259;SDS011;12384;48.112;18.418;2022-09-02T13:35:36;8.35;;;7.95;;
24259;SDS011;12384;48.112;18.418;2022-09-02T13:38:07;8.30;;;7.90;;
24259;SDS011;12384;48.112;18.418;2022-09-02T13:40:38;8.20;;;7.80;;
24259;SDS011;12384;48.112;18.418;2022-09-02T13:43:15;7.68;;;7.25;;
24259;SDS011;12384;48.112;18.418;2022-09-02T13:45:46;8.10;;;7.70;;
24259;SDS011;12384;48.112;18.418;2022-09-02T13:48:17;7.80;;;7.40;;
24259;SDS011;12384;48.112;18.418;2022-09-02T13:50:47;8.00;;;7.60;;
24259;SDS011;12384;48.112;18.418;2022-09-02T13:53:19;8.00;;;7.60;;
24259;SDS011;12384;48.112;18.418;2022-09-02T13:56:12;9.73;;;9.10;;
24259;SDS011;12384;48.112;18.418;2022-09-02T13:58:43;9.35;;;8.75;;
24259;SDS011;12384;48.112;18.418;2022-09-02T14:01:23;9.05;;;8.65;;
24259;SDS011;12384;48.112;18.418;2022-09-02T14:03:55;8.80;;;8.40;;
24259;SDS011;12384;48.112;18.418;2022-09-02T14:06:27;8.20;;;7.80;;
24259;SDS011;12384;48.112;18.418;2022-09-02T14:08:59;8.65;;;8.25;;
24259;SDS011;12384;48.112;18.418;2022-09-02T14:11:31;8.50;;;8.00;;
24259;SDS011;12384;48.112;18.418;2022-09-02T14:14:05;8.30;;;7.90;;
24259;SDS011;12384;48.112;18.418;2022-09-02T14:16:35;8.02;;;7.63;;
24259;SDS011;12384;48.112;18.418;2022-09-02T14:19:08;8.50;;;8.10;;
24259;SDS011;12384;48.112;18.418;2022-09-02T14:21:44;7.90;;;7.40;;
24259;SDS011;12384;48.112;18.418;2022-09-02T14:24:14;8.15;;;7.75;;
24259;SDS011;12384;48.112;18.418;2022-09-02T14:26:45;9.20;;;8.80;;
24259;SDS011;12384;48.112;18.418;2022-09-02T14:29:16;8.77;;;8.38;;
24259;SDS011;12384;48.112;18.418;2022-09-02T14:32:01;8.93;;;8.48;;
24259;SDS011;12384;48.112;18.418;2022-09-02T14:34:36;8.70;;;8.20;;
24259;SDS011;12384;48.112;18.418;2022-09-02T14:37:19;9.23;;;8.75;;
24259;SDS011;12384;48.112;18.418;2022-09-02T14:39:50;8.75;;;8.35;;
24259;SDS011;12384;48.112;18.418;2022-09-02T14:42:32;8.68;;;8.27;;
24259;SDS011;12384;48.112;18.418;2022-09-02T14:45:09;9.00;;;8.50;;
24259;SDS011;12384;48.112;18.418;2022-09-02T14:47:40;9.60;;;9.10;;
24259;SDS011;12384;48.112;18.418;2022-09-02T14:50:09;9.90;;;9.40;;
24259;SDS011;12384;48.112;18.418;2022-09-02T14:52:44;9.13;;;8.43;;
24259;SDS011;12384;48.112;18.418;2022-09-02T14:58:12;9.50;;;9.00;;
24259;SDS011;12384;48.112;18.418;2022-09-02T15:00:42;9.70;;;9.10;;
24259;SDS011;12384;48.112;18.418;2022-09-02T15:03:14;8.65;;;8.25;;
24259;SDS011;12384;48.112;18.418;2022-09-02T15:05:43;8.82;;;8.40;;
24259;SDS011;12384;48.112;18.418;2022-09-02T15:08:12;8.80;;;8.40;;
24259;SDS011;12384;48.112;18.418;2022-09-02T15:10:41;8.63;;;8.13;;
24259;SDS011;12384;48.112;18.418;2022-09-02T15:13:12;8.07;;;7.68;;
24259;SDS011;12384;48.112;18.418;2022-09-02T15:15:45;8.07;;;7.68;;
24259;SDS011;12384;48.112;18.418;2022-09-02T15:18:17;8.00;;;7.60;;
24259;SDS011;12384;48.112;18.418;2022-09-02T15:20:45;8.38;;;7.97;;
24259;SDS011;12384;48.112;18.418;2022-09-02T15:23:14;8.13;;;7.72;;
24259;SDS011;12384;48.112;18.418;2022-09-02T15:25:42;8.25;;;7.70;;
24259;SDS011;12384;48.112;18.418;2022-09-02T15:28:11;7.70;;;7.30;;
24259;SDS011;12384;48.112;18.418;2022-09-02T15:30:39;7.90;;;7.50;;
24259;SDS011;12384;48.112;18.418;2022-09-02T15:33:08;8.02;;;7.63;;
24259;SDS011;12384;48.112;18.418;2022-09-02T15:35:44;8.38;;;7.97;;
24259;SDS011;12384;48.112;18.418;2022-09-02T15:38:13;8.30;;;7.90;;
24259;SDS011;12384;48.112;18.418;2022-09-02T15:40:42;9.25;;;8.80;;
24259;SDS011;12384;48.112;18.418;2022-09-02T15:43:11;7.65;;;7.25;;
24259;SDS011;12384;48.112;18.418;2022-09-02T15:45:43;8.30;;;7.90;;
24259;SDS011;12384;48.112;18.418;2022-09-02T15:48:13;8.30;;;7.90;;
24259;SDS011;12384;48.112;18.418;2022-09-02T15:50:42;8.20;;;7.80;;